This is the latest recevied weather packets stored in our database for station/object 4S6DRJ-13. If no packets are shown the sender has not sent any weather packets the latest 1 day(s).
| Time | Temp. | Humidity | Pressure | Rain* | Wind** | Luminosity | Snow |
|---|---|---|---|---|---|---|---|
| 1778104059 | 25.56° C | 95% | 1003.8 hPa | 1.27 mm | 0.45 m/s, 147° | 0 W/m² | - |
| 1778103876 | 25.56° C | 95% | 1003.9 hPa | 1.52 mm | 0 m/s | 0 W/m² | - |
| 1778103266 | 25° C | 95% | 1004 hPa | 1.78 mm | 0 m/s | 0 W/m² | - |
| 1778103204 | 25° C | 95% | 1003.9 hPa | 1.78 mm | 0 m/s | 0 W/m² | - |
| 1778103082 | 25° C | 95% | 1003.9 hPa | 1.78 mm | 0 m/s | 0 W/m² | - |
| 1778103021 | 25° C | 95% | 1003.9 hPa | 1.78 mm | 0.45 m/s, 77° | 0 W/m² | - |
| 1778102960 | 25° C | 95% | 1003.8 hPa | 1.78 mm | 0.89 m/s, 116° | 0 W/m² | - |
| 1778102899 | 25.56° C | 95% | 1004 hPa | 1.52 mm | 0.45 m/s, 101° | 0 W/m² | - |
| 1778102838 | 25.56° C | 95% | 1004 hPa | 1.52 mm | 0.45 m/s, 95° | 0 W/m² | - |
| 1778102777 | 25.56° C | 95% | 1003.9 hPa | 1.52 mm | 0 m/s | 0 W/m² | - |
| 1778101618 | 25.56° C | 94% | 1004.2 hPa | 2.29 mm | 0 m/s | 0 W/m² | - |
| 1778101070 | 25.56° C | 94% | 1004.1 hPa | 2.54 mm | 0 m/s | 0 W/m² | - |
| 1778099117 | 26.11° C | 94% | 1004.9 hPa | 4.06 mm | 0.45 m/s, 352° | 0 W/m² | - |
| 1778098934 | 25.56° C | 94% | 1005 hPa | 4.06 mm | 0 m/s | 0 W/m² | - |
| 1778098873 | 25.56° C | 94% | 1005.1 hPa | 4.06 mm | 0 m/s | 0 W/m² | - |
| 1778098812 | 25.56° C | 94% | 1004.9 hPa | 4.06 mm | 0 m/s | 0 W/m² | - |
| 1778098751 | 25.56° C | 94% | 1004.9 hPa | 4.32 mm | 0 m/s | 0 W/m² | - |
| 1778098690 | 25.56° C | 94% | 1005 hPa | 4.32 mm | 0 m/s | 0 W/m² | - |
| 1778098629 | 25.56° C | 94% | 1004.8 hPa | 4.06 mm | 0 m/s | 0 W/m² | - |
| 1778098568 | 25.56° C | 94% | 1004.9 hPa | 4.06 mm | 0 m/s | 0 W/m² | - |
| 1778098507 | 25.56° C | 94% | 1004.7 hPa | 4.06 mm | 0 m/s | 0 W/m² | - |
| 1778098385 | 25.56° C | 94% | 1005 hPa | 4.06 mm | 0 m/s | 0 W/m² | - |
| 1778098324 | 25.56° C | 94% | 1005 hPa | 4.06 mm | 0 m/s | 0 W/m² | - |
| 1778098263 | 25.56° C | 94% | 1004.9 hPa | 3.81 mm | 0 m/s | 0 W/m² | - |
| 1778098202 | 25.56° C | 94% | 1005 hPa | 3.81 mm | 0 m/s | 0 W/m² | - |
* Rain latest hour (hover to see other rain measurements)
** Current wind speed in m/s (hover to see current wind gust speed)